Terminal Aerodrome Forecast
Issued by NWS

Home | Current Version | Previous Version | Graphics & Text | Print | Product List | Glossary On
Versions: 1 2 3 4 5 6 7 8 9 10 11 12 13 14
000
FTUS43 KMPX 011739
TAFRNH
TAF
KRNH 011739Z 0118/0218 21011KT P6SM -SHRA SCT050 BKN080
     FM012200 22009KT P6SM SCT080
     FM020200 17003KT P6SM FEW050
     FM021600 20010KT P6SM SKC=

USA.gov is the U.S. government's official web portal to all federal, state and local government web resources and services.